sensor_id;sensor_type;location;lat;lon;timestamp;pressure;altitude;pressure_sealevel;temperature;humidity
11680;BME280;5896;42.686;23.142;2024-03-17T00:00:55;93353.75;;;3.01;90.59
11680;BME280;5896;42.686;23.142;2024-03-17T00:03:21;93357.38;;;3.06;90.92
11680;BME280;5896;42.686;23.142;2024-03-17T00:05:47;93351.00;;;3.10;90.95
11680;BME280;5896;42.686;23.142;2024-03-17T00:08:13;93351.94;;;3.09;90.96
11680;BME280;5896;42.686;23.142;2024-03-17T00:10:39;93355.19;;;3.03;90.15
11680;BME280;5896;42.686;23.142;2024-03-17T00:13:05;93355.97;;;2.87;90.13
11680;BME280;5896;42.686;23.142;2024-03-17T00:15:31;93351.38;;;2.83;90.75
11680;BME280;5896;42.686;23.142;2024-03-17T00:17:57;93351.69;;;2.80;90.66
11680;BME280;5896;42.686;23.142;2024-03-17T00:20:22;93345.81;;;2.79;90.67
11680;BME280;5896;42.686;23.142;2024-03-17T00:22:50;93344.53;;;2.75;91.03
11680;BME280;5896;42.686;23.142;2024-03-17T00:25:18;93341.03;;;2.68;91.06
11680;BME280;5896;42.686;23.142;2024-03-17T00:27:43;93347.75;;;2.69;91.64
11680;BME280;5896;42.686;23.142;2024-03-17T00:30:10;93340.91;;;2.61;90.74
11680;BME280;5896;42.686;23.142;2024-03-17T00:32:40;93346.94;;;2.60;91.73
11680;BME280;5896;42.686;23.142;2024-03-17T00:35:10;93337.72;;;2.59;91.72
11680;BME280;5896;42.686;23.142;2024-03-17T00:37:39;93347.91;;;2.51;92.07
11680;BME280;5896;42.686;23.142;2024-03-17T00:40:05;93347.91;;;2.51;91.82
11680;BME280;5896;42.686;23.142;2024-03-17T00:42:32;93353.81;;;2.43;91.85
11680;BME280;5896;42.686;23.142;2024-03-17T00:44:58;93351.09;;;2.37;92.10
11680;BME280;5896;42.686;23.142;2024-03-17T00:47:25;93348.56;;;2.45;92.85
11680;BME280;5896;42.686;23.142;2024-03-17T00:49:50;93353.66;;;2.45;92.23
11680;BME280;5896;42.686;23.142;2024-03-17T00:52:16;93347.44;;;2.39;91.99
11680;BME280;5896;42.686;23.142;2024-03-17T00:54:42;93342.03;;;2.34;92.35
11680;BME280;5896;42.686;23.142;2024-03-17T00:57:07;93345.69;;;2.32;92.35
11680;BME280;5896;42.686;23.142;2024-03-17T00:59:33;93353.97;;;2.34;91.96
11680;BME280;5896;42.686;23.142;2024-03-17T01:01:58;93352.69;;;2.38;92.11
11680;BME280;5896;42.686;23.142;2024-03-17T01:04:24;93350.63;;;2.33;92.33
11680;BME280;5896;42.686;23.142;2024-03-17T01:06:49;93355.88;;;2.24;91.84
11680;BME280;5896;42.686;23.142;2024-03-17T01:09:14;93353.97;;;2.17;92.28
11680;BME280;5896;42.686;23.142;2024-03-17T01:11:40;93355.72;;;2.17;92.96
11680;BME280;5896;42.686;23.142;2024-03-17T01:14:05;93349.66;;;2.18;92.93
11680;BME280;5896;42.686;23.142;2024-03-17T01:16:33;93357.78;;;2.05;92.33
11680;BME280;5896;42.686;23.142;2024-03-17T01:18:58;93354.59;;;2.11;92.92
11680;BME280;5896;42.686;23.142;2024-03-17T01:21:23;93359.69;;;2.11;93.08
11680;BME280;5896;42.686;23.142;2024-03-17T01:23:49;93354.13;;;2.16;93.50
11680;BME280;5896;42.686;23.142;2024-03-17T01:26:15;93361.13;;;2.22;93.37
11680;BME280;5896;42.686;23.142;2024-03-17T01:28:40;93360.34;;;2.22;92.80
11680;BME280;5896;42.686;23.142;2024-03-17T01:31:06;93351.72;;;2.23;93.18
11680;BME280;5896;42.686;23.142;2024-03-17T01:33:31;93345.72;;;2.24;93.01
11680;BME280;5896;42.686;23.142;2024-03-17T01:35:57;93349.03;;;2.32;93.67
11680;BME280;5896;42.686;23.142;2024-03-17T01:38:22;93355.88;;;2.32;93.19
11680;BME280;5896;42.686;23.142;2024-03-17T01:40:48;93353.34;;;2.40;93.55
11680;BME280;5896;42.686;23.142;2024-03-17T01:43:13;93341.22;;;2.42;93.17
11680;BME280;5896;42.686;23.142;2024-03-17T01:45:38;93346.50;;;2.40;92.83
11680;BME280;5896;42.686;23.142;2024-03-17T01:48:10;93350.31;;;2.36;92.31
11680;BME280;5896;42.686;23.142;2024-03-17T01:50:38;93347.78;;;2.28;92.00
11680;BME280;5896;42.686;23.142;2024-03-17T01:53:09;93339.00;;;2.06;91.36
11680;BME280;5896;42.686;23.142;2024-03-17T01:55:40;93349.19;;;2.14;92.69
11680;BME280;5896;42.686;23.142;2024-03-17T01:58:06;93340.44;;;2.25;93.10
11680;BME280;5896;42.686;23.142;2024-03-17T02:00:36;93344.91;;;2.31;93.26
11680;BME280;5896;42.686;23.142;2024-03-17T02:03:06;93339.66;;;2.25;92.50
11680;BME280;5896;42.686;23.142;2024-03-17T02:05:32;93344.09;;;2.23;91.92
11680;BME280;5896;42.686;23.142;2024-03-17T02:07:59;93341.06;;;2.19;92.27
11680;BME280;5896;42.686;23.142;2024-03-17T02:10:25;93342.69;;;2.20;92.70
11680;BME280;5896;42.686;23.142;2024-03-17T02:12:50;93338.50;;;2.11;92.53
11680;BME280;5896;42.686;23.142;2024-03-17T02:15:16;93341.53;;;2.06;92.51
11680;BME280;5896;42.686;23.142;2024-03-17T02:17:41;93336.44;;;1.98;92.27
11680;BME280;5896;42.686;23.142;2024-03-17T02:20:07;93341.06;;;1.94;92.18
11680;BME280;5896;42.686;23.142;2024-03-17T02:22:34;93334.03;;;1.88;92.10
11680;BME280;5896;42.686;23.142;2024-03-17T02:25:00;93341.66;;;1.88;92.51
11680;BME280;5896;42.686;23.142;2024-03-17T02:27:26;93336.59;;;1.88;92.63
11680;BME280;5896;42.686;23.142;2024-03-17T02:29:51;93340.88;;;1.88;92.79
11680;BME280;5896;42.686;23.142;2024-03-17T02:32:17;93334.81;;;1.81;93.04
11680;BME280;5896;42.686;23.142;2024-03-17T02:34:42;93327.53;;;1.86;93.60
11680;BME280;5896;42.686;23.142;2024-03-17T02:37:09;93331.81;;;1.85;93.22
11680;BME280;5896;42.686;23.142;2024-03-17T02:39:35;93332.63;;;1.86;93.57
11680;BME280;5896;42.686;23.142;2024-03-17T02:42:05;93331.66;;;1.79;93.77
11680;BME280;5896;42.686;23.142;2024-03-17T02:44:32;93336.75;;;1.79;93.67
11680;BME280;5896;42.686;23.142;2024-03-17T02:46:58;93331.63;;;1.70;93.04
11680;BME280;5896;42.686;23.142;2024-03-17T02:49:28;93334.50;;;1.67;93.23
11680;BME280;5896;42.686;23.142;2024-03-17T02:52:00;93335.59;;;1.65;92.93
11680;BME280;5896;42.686;23.142;2024-03-17T02:54:26;93319.66;;;1.63;92.93
11680;BME280;5896;42.686;23.142;2024-03-17T02:56:51;93332.09;;;1.74;93.91
11680;BME280;5896;42.686;23.142;2024-03-17T02:59:16;93334.00;;;1.72;93.82
11680;BME280;5896;42.686;23.142;2024-03-17T03:01:42;93329.41;;;1.67;93.20
11680;BME280;5896;42.686;23.142;2024-03-17T03:04:08;93328.13;;;1.72;94.06
11680;BME280;5896;42.686;23.142;2024-03-17T03:06:34;93329.09;;;1.79;94.13
11680;BME280;5896;42.686;23.142;2024-03-17T03:08:59;93330.69;;;1.88;93.93
11680;BME280;5896;42.686;23.142;2024-03-17T03:11:25;93323.06;;;1.88;94.00
11680;BME280;5896;42.686;23.142;2024-03-17T03:13:51;93319.56;;;1.81;93.15
11680;BME280;5896;42.686;23.142;2024-03-17T03:16:16;93332.63;;;1.86;93.36
11680;BME280;5896;42.686;23.142;2024-03-17T03:18:43;93322.75;;;1.83;93.25
11680;BME280;5896;42.686;23.142;2024-03-17T03:21:10;93318.13;;;1.78;93.01
11680;BME280;5896;42.686;23.142;2024-03-17T03:23:36;93325.78;;;1.78;93.46
11680;BME280;5896;42.686;23.142;2024-03-17T03:26:03;93319.06;;;1.77;93.33
11680;BME280;5896;42.686;23.142;2024-03-17T03:28:30;93319.06;;;1.77;93.47
11680;BME280;5896;42.686;23.142;2024-03-17T03:30:57;93319.72;;;1.79;93.59
11680;BME280;5896;42.686;23.142;2024-03-17T03:33:23;93325.44;;;1.81;93.54
11680;BME280;5896;42.686;23.142;2024-03-17T03:35:49;93328.94;;;1.80;93.46
11680;BME280;5896;42.686;23.142;2024-03-17T03:38:15;93330.03;;;1.78;93.31
11680;BME280;5896;42.686;23.142;2024-03-17T03:40:41;93334.63;;;1.74;93.50
11680;BME280;5896;42.686;23.142;2024-03-17T03:43:10;93336.06;;;1.68;93.46
11680;BME280;5896;42.686;23.142;2024-03-17T03:45:36;93334.31;;;1.69;93.84
11680;BME280;5896;42.686;23.142;2024-03-17T03:48:02;93331.63;;;1.70;93.67
11680;BME280;5896;42.686;23.142;2024-03-17T03:50:28;93332.09;;;1.66;93.66
11680;BME280;5896;42.686;23.142;2024-03-17T03:52:54;93342.91;;;1.68;94.05
11680;BME280;5896;42.686;23.142;2024-03-17T03:55:20;93342.13;;;1.67;94.05
11680;BME280;5896;42.686;23.142;2024-03-17T03:57:45;93343.22;;;1.73;94.48
11680;BME280;5896;42.686;23.142;2024-03-17T04:00:15;93341.03;;;1.86;94.32
11680;BME280;5896;42.686;23.142;2024-03-17T04:02:43;93343.13;;;1.99;94.24
11680;BME280;5896;42.686;23.142;2024-03-17T04:05:10;93338.19;;;1.98;93.29
11680;BME280;5896;42.686;23.142;2024-03-17T04:07:36;93345.66;;;1.91;93.08
11680;BME280;5896;42.686;23.142;2024-03-17T04:10:03;93351.25;;;1.94;93.18
11680;BME280;5896;42.686;23.142;2024-03-17T04:12:29;93349.47;;;1.95;92.94
11680;BME280;5896;42.686;23.142;2024-03-17T04:14:56;93352.03;;;1.87;92.89
11680;BME280;5896;42.686;23.142;2024-03-17T04:17:22;93357.59;;;1.82;93.11
11680;BME280;5896;42.686;23.142;2024-03-17T04:19:51;93365.34;;;1.81;93.15
11680;BME280;5896;42.686;23.142;2024-03-17T04:22:17;93366.81;;;1.83;93.97
11680;BME280;5896;42.686;23.142;2024-03-17T04:24:44;93366.81;;;1.83;93.70
11680;BME280;5896;42.686;23.142;2024-03-17T04:27:09;93363.94;;;1.78;93.72
11680;BME280;5896;42.686;23.142;2024-03-17T04:29:35;93363.94;;;1.86;93.89
11680;BME280;5896;42.686;23.142;2024-03-17T04:32:00;93365.38;;;1.89;93.83
11680;BME280;5896;42.686;23.142;2024-03-17T04:34:27;93373.66;;;1.99;93.87
11680;BME280;5896;42.686;23.142;2024-03-17T04:36:52;93373.69;;;2.07;93.56
11680;BME280;5896;42.686;23.142;2024-03-17T04:39:19;93369.25;;;2.09;93.11
11680;BME280;5896;42.686;23.142;2024-03-17T04:41:45;93370.34;;;2.15;93.19
11680;BME280;5896;42.686;23.142;2024-03-17T04:44:11;93380.22;;;2.26;93.24
11680;BME280;5896;42.686;23.142;2024-03-17T04:46:36;93375.00;;;2.28;92.97
11680;BME280;5896;42.686;23.142;2024-03-17T04:49:01;93385.19;;;2.28;92.61
11680;BME280;5896;42.686;23.142;2024-03-17T04:51:29;93386.91;;;2.27;91.88
11680;BME280;5896;42.686;23.142;2024-03-17T04:53:54;93389.94;;;2.23;92.09
11680;BME280;5896;42.686;23.142;2024-03-17T04:56:20;93392.34;;;2.24;92.48
11680;BME280;5896;42.686;23.142;2024-03-17T04:58:45;93408.53;;;2.23;92.72
11680;BME280;5896;42.686;23.142;2024-03-17T05:01:10;93399.00;;;2.25;92.80
11680;BME280;5896;42.686;23.142;2024-03-17T05:03:37;93400.94;;;2.31;92.97
11680;BME280;5896;42.686;23.142;2024-03-17T05:06:03;93406.03;;;2.39;92.54
11680;BME280;5896;42.686;23.142;2024-03-17T05:08:30;93415.91;;;2.51;93.06
11680;BME280;5896;42.686;23.142;2024-03-17T05:11:03;93418.59;;;2.57;92.77
11680;BME280;5896;42.686;23.142;2024-03-17T05:13:34;93424.03;;;2.62;92.39
11680;BME280;5896;42.686;23.142;2024-03-17T05:16:00;93422.28;;;2.71;92.27
11680;BME280;5896;42.686;23.142;2024-03-17T05:18:26;93423.56;;;2.75;92.35
11680;BME280;5896;42.686;23.142;2024-03-17T05:20:59;93417.50;;;2.84;92.17
11680;BME280;5896;42.686;23.142;2024-03-17T05:23:32;93426.09;;;2.91;92.22
11680;BME280;5896;42.686;23.142;2024-03-17T05:25:58;93421.16;;;2.98;92.11
11680;BME280;5896;42.686;23.142;2024-03-17T05:28:24;93417.97;;;3.04;92.15
11680;BME280;5896;42.686;23.142;2024-03-17T05:30:50;93416.50;;;3.10;91.69
11680;BME280;5896;42.686;23.142;2024-03-17T05:33:20;93419.69;;;3.20;91.19
11680;BME280;5896;42.686;23.142;2024-03-17T05:36:01;93429.38;;;3.33;91.33
11680;BME280;5896;42.686;23.142;2024-03-17T05:38:29;93428.88;;;3.46;90.72
11680;BME280;5896;42.686;23.142;2024-03-17T05:41:08;93425.19;;;3.56;90.38
11680;BME280;5896;42.686;23.142;2024-03-17T05:43:36;93419.56;;;3.61;90.94
11680;BME280;5896;42.686;23.142;2024-03-17T05:46:02;93420.00;;;3.73;91.03
11680;BME280;5896;42.686;23.142;2024-03-17T05:48:28;93422.53;;;3.81;90.23
11680;BME280;5896;42.686;23.142;2024-03-17T05:50:54;93415.97;;;3.86;90.48
11680;BME280;5896;42.686;23.142;2024-03-17T05:53:20;93422.44;;;3.97;90.62
11680;BME280;5896;42.686;23.142;2024-03-17T05:55:46;93424.47;;;4.10;89.55
11680;BME280;5896;42.686;23.142;2024-03-17T05:58:12;93422.47;;;4.20;89.76
11680;BME280;5896;42.686;23.142;2024-03-17T06:00:39;93412.69;;;4.32;89.04
11680;BME280;5896;42.686;23.142;2024-03-17T06:03:05;93417.63;;;4.56;88.98
11680;BME280;5896;42.686;23.142;2024-03-17T06:05:35;93418.47;;;4.72;88.44
11680;BME280;5896;42.686;23.142;2024-03-17T06:08:02;93431.56;;;4.92;87.64
11680;BME280;5896;42.686;23.142;2024-03-17T06:10:29;93429.69;;;5.08;84.72
11680;BME280;5896;42.686;23.142;2024-03-17T06:12:55;93432.06;;;5.25;81.92
11680;BME280;5896;42.686;23.142;2024-03-17T06:15:21;93429.72;;;5.38;81.46
11680;BME280;5896;42.686;23.142;2024-03-17T06:17:48;93437.38;;;5.53;81.60
11680;BME280;5896;42.686;23.142;2024-03-17T06:20:14;93434.91;;;5.59;81.39
11680;BME280;5896;42.686;23.142;2024-03-17T06:22:39;93429.69;;;5.68;78.78
11680;BME280;5896;42.686;23.142;2024-03-17T06:25:06;93433.00;;;5.61;79.11
11680;BME280;5896;42.686;23.142;2024-03-17T06:27:32;93438.63;;;5.72;79.07
11680;BME280;5896;42.686;23.142;2024-03-17T06:29:58;93443.03;;;5.63;78.75
11680;BME280;5896;42.686;23.142;2024-03-17T06:32:26;93443.22;;;5.76;78.91
11680;BME280;5896;42.686;23.142;2024-03-17T06:34:51;93444.38;;;5.59;78.92
11680;BME280;5896;42.686;23.142;2024-03-17T06:37:16;93449.69;;;5.72;78.38
11680;BME280;5896;42.686;23.142;2024-03-17T06:39:45;93442.69;;;5.66;78.60
11680;BME280;5896;42.686;23.142;2024-03-17T06:42:10;93442.16;;;6.00;78.64
11680;BME280;5896;42.686;23.142;2024-03-17T06:44:37;93446.50;;;6.15;78.93
11680;BME280;5896;42.686;23.142;2024-03-17T06:47:02;93441.38;;;6.36;77.57
11680;BME280;5896;42.686;23.142;2024-03-17T06:49:27;93436.28;;;6.57;78.66
11680;BME280;5896;42.686;23.142;2024-03-17T06:51:53;93443.44;;;6.83;76.63
11680;BME280;5896;42.686;23.142;2024-03-17T06:54:18;93452.06;;;6.97;75.84
11680;BME280;5896;42.686;23.142;2024-03-17T06:56:45;93448.78;;;7.10;74.67
11680;BME280;5896;42.686;23.142;2024-03-17T06:59:10;93439.16;;;7.40;76.10
11680;BME280;5896;42.686;23.142;2024-03-17T07:01:35;93449.22;;;7.42;74.95
11680;BME280;5896;42.686;23.142;2024-03-17T07:04:01;93445.59;;;7.29;76.08
11680;BME280;5896;42.686;23.142;2024-03-17T07:06:26;93452.00;;;7.19;75.84
11680;BME280;5896;42.686;23.142;2024-03-17T07:08:52;93454.47;;;7.55;74.66
11680;BME280;5896;42.686;23.142;2024-03-17T07:11:17;93446.91;;;7.53;74.84
11680;BME280;5896;42.686;23.142;2024-03-17T07:13:43;93448.28;;;7.77;72.72
11680;BME280;5896;42.686;23.142;2024-03-17T07:16:09;93457.75;;;7.77;73.18
11680;BME280;5896;42.686;23.142;2024-03-17T07:18:35;93454.91;;;8.00;74.12
11680;BME280;5896;42.686;23.142;2024-03-17T07:21:03;93455.53;;;8.09;73.19
11680;BME280;5896;42.686;23.142;2024-03-17T07:23:30;93455.47;;;7.61;72.24
11680;BME280;5896;42.686;23.142;2024-03-17T07:25:58;93456.13;;;7.69;73.42
11680;BME280;5896;42.686;23.142;2024-03-17T07:28:24;93468.34;;;8.02;70.74
11680;BME280;5896;42.686;23.142;2024-03-17T07:30:52;93459.50;;;8.11;72.43
11680;BME280;5896;42.686;23.142;2024-03-17T07:33:18;93466.59;;;8.09;73.92
11680;BME280;5896;42.686;23.142;2024-03-17T07:35:58;93460.34;;;7.84;71.21
11680;BME280;5896;42.686;23.142;2024-03-17T07:38:26;93458.59;;;8.32;70.39
11680;BME280;5896;42.686;23.142;2024-03-17T07:41:00;93463.00;;;8.38;71.04
11680;BME280;5896;42.686;23.142;2024-03-17T07:43:26;93458.72;;;8.65;70.29
11680;BME280;5896;42.686;23.142;2024-03-17T07:45:59;93465.28;;;8.74;68.34
11680;BME280;5896;42.686;23.142;2024-03-17T07:48:25;93454.41;;;8.86;70.58
11680;BME280;5896;42.686;23.142;2024-03-17T07:50:55;93461.88;;;7.71;72.94
11680;BME280;5896;42.686;23.142;2024-03-17T07:53:20;93460.06;;;8.48;71.39
11680;BME280;5896;42.686;23.142;2024-03-17T07:55:46;93457.41;;;8.83;70.82
11680;BME280;5896;42.686;23.142;2024-03-17T07:58:11;93462.53;;;8.76;69.22
11680;BME280;5896;42.686;23.142;2024-03-17T08:00:37;93463.31;;;8.90;68.74
11680;BME280;5896;42.686;23.142;2024-03-17T08:03:02;93454.25;;;8.33;69.62
11680;BME280;5896;42.686;23.142;2024-03-17T08:05:29;93470.22;;;8.21;69.22
11680;BME280;5896;42.686;23.142;2024-03-17T08:07:55;93460.59;;;7.89;69.37
11680;BME280;5896;42.686;23.142;2024-03-17T08:10:20;93464.00;;;7.96;72.38
11680;BME280;5896;42.686;23.142;2024-03-17T08:12:47;93458.00;;;8.37;70.20
11680;BME280;5896;42.686;23.142;2024-03-17T08:15:12;93463.03;;;8.03;69.52
11680;BME280;5896;42.686;23.142;2024-03-17T08:17:38;93462.03;;;8.46;70.19
11680;BME280;5896;42.686;23.142;2024-03-17T08:20:03;93455.56;;;8.57;70.69
11680;BME280;5896;42.686;23.142;2024-03-17T08:22:29;93454.81;;;8.89;68.60
11680;BME280;5896;42.686;23.142;2024-03-17T08:24:55;93453.66;;;9.52;67.01
11680;BME280;5896;42.686;23.142;2024-03-17T08:27:20;93450.25;;;9.71;64.78
11680;BME280;5896;42.686;23.142;2024-03-17T08:29:46;93446.88;;;9.57;66.11
11680;BME280;5896;42.686;23.142;2024-03-17T08:32:11;93446.81;;;9.97;65.54
11680;BME280;5896;42.686;23.142;2024-03-17T08:34:36;93440.03;;;10.09;65.26
11680;BME280;5896;42.686;23.142;2024-03-17T08:37:02;93448.06;;;10.46;66.04
11680;BME280;5896;42.686;23.142;2024-03-17T08:39:27;93444.31;;;10.42;64.60
11680;BME280;5896;42.686;23.142;2024-03-17T08:41:53;93443.41;;;10.10;65.61
11680;BME280;5896;42.686;23.142;2024-03-17T08:44:18;93442.16;;;10.32;63.75
11680;BME280;5896;42.686;23.142;2024-03-17T08:46:44;93441.50;;;10.82;62.82
11680;BME280;5896;42.686;23.142;2024-03-17T08:49:09;93431.28;;;11.25;61.17
11680;BME280;5896;42.686;23.142;2024-03-17T08:51:35;93433.13;;;11.18;61.29
11680;BME280;5896;42.686;23.142;2024-03-17T08:54:00;93438.09;;;9.98;65.03
11680;BME280;5896;42.686;23.142;2024-03-17T08:56:26;93426.44;;;10.79;63.91
11680;BME280;5896;42.686;23.142;2024-03-17T08:58:51;93437.72;;;10.84;61.73
11680;BME280;5896;42.686;23.142;2024-03-17T09:01:16;93433.09;;;10.61;62.56
11680;BME280;5896;42.686;23.142;2024-03-17T09:03:42;93424.06;;;11.02;62.44
11680;BME280;5896;42.686;23.142;2024-03-17T09:06:15;93433.97;;;10.80;62.61
11680;BME280;5896;42.686;23.142;2024-03-17T09:08:41;93425.84;;;11.33;61.95
11680;BME280;5896;42.686;23.142;2024-03-17T09:11:12;93422.84;;;12.35;58.33
11680;BME280;5896;42.686;23.142;2024-03-17T09:13:37;93422.28;;;12.33;59.19
11680;BME280;5896;42.686;23.142;2024-03-17T09:16:03;93416.56;;;12.73;57.97
11680;BME280;5896;42.686;23.142;2024-03-17T09:18:30;93421.78;;;13.14;58.20
11680;BME280;5896;42.686;23.142;2024-03-17T09:21:07;93413.25;;;13.73;51.93
11680;BME280;5896;42.686;23.142;2024-03-17T09:23:34;93407.09;;;14.26;52.88
11680;BME280;5896;42.686;23.142;2024-03-17T09:26:02;93412.66;;;12.82;55.85
11680;BME280;5896;42.686;23.142;2024-03-17T09:28:29;93413.06;;;13.09;51.09
11680;BME280;5896;42.686;23.142;2024-03-17T09:30:55;93402.75;;;13.32;52.45
11680;BME280;5896;42.686;23.142;2024-03-17T09:33:26;93405.84;;;13.41;51.19
11680;BME280;5896;42.686;23.142;2024-03-17T09:35:57;93393.59;;;14.00;46.18
11680;BME280;5896;42.686;23.142;2024-03-17T09:38:23;93404.59;;;12.60;53.64
11680;BME280;5896;42.686;23.142;2024-03-17T09:40:48;93403.72;;;12.66;51.47
11680;BME280;5896;42.686;23.142;2024-03-17T09:43:22;93401.03;;;12.12;48.70
11680;BME280;5896;42.686;23.142;2024-03-17T09:45:49;93406.66;;;11.66;50.84
11680;BME280;5896;42.686;23.142;2024-03-17T09:48:16;93399.03;;;13.40;48.80
11680;BME280;5896;42.686;23.142;2024-03-17T09:51:05;93390.91;;;13.83;45.72
11680;BME280;5896;42.686;23.142;2024-03-17T09:53:31;93394.00;;;13.33;44.02
11680;BME280;5896;42.686;23.142;2024-03-17T09:56:18;93394.66;;;12.27;48.77
11680;BME280;5896;42.686;23.142;2024-03-17T09:58:48;93402.09;;;12.95;46.51
11680;BME280;5896;42.686;23.142;2024-03-17T10:01:19;93392.72;;;12.71;45.82
11680;BME280;5896;42.686;23.142;2024-03-17T10:03:47;93398.03;;;11.97;48.55
11680;BME280;5896;42.686;23.142;2024-03-17T10:06:29;93395.31;;;12.40;49.16
11680;BME280;5896;42.686;23.142;2024-03-17T10:08:59;93395.34;;;12.94;48.47
11680;BME280;5896;42.686;23.142;2024-03-17T10:11:35;93395.97;;;13.20;48.07
11680;BME280;5896;42.686;23.142;2024-03-17T10:14:03;93405.81;;;12.87;48.06
11680;BME280;5896;42.686;23.142;2024-03-17T10:16:30;93398.41;;;13.03;46.73
11680;BME280;5896;42.686;23.142;2024-03-17T10:19:13;93398.81;;;11.98;50.43
11680;BME280;5896;42.686;23.142;2024-03-17T10:21:40;93405.13;;;11.83;51.98
11680;BME280;5896;42.686;23.142;2024-03-17T10:26:46;93408.06;;;12.05;49.50
11680;BME280;5896;42.686;23.142;2024-03-17T10:29:29;93407.53;;;11.60;48.35
11680;BME280;5896;42.686;23.142;2024-03-17T10:34:51;93400.50;;;12.22;47.24
11680;BME280;5896;42.686;23.142;2024-03-17T10:37:18;93411.44;;;11.87;48.65
11680;BME280;5896;42.686;23.142;2024-03-17T10:39:50;93405.28;;;11.82;49.43
11680;BME280;5896;42.686;23.142;2024-03-17T10:42:23;93404.78;;;11.73;47.09
11680;BME280;5896;42.686;23.142;2024-03-17T10:44:49;93414.88;;;12.00;48.70
11680;BME280;5896;42.686;23.142;2024-03-17T10:47:25;93403.81;;;12.11;48.35
11680;BME280;5896;42.686;23.142;2024-03-17T10:49:51;93403.75;;;11.99;45.23
11680;BME280;5896;42.686;23.142;2024-03-17T10:52:18;93397.44;;;12.74;43.02
11680;BME280;5896;42.686;23.142;2024-03-17T10:54:47;93382.81;;;13.45;43.43
11680;BME280;5896;42.686;23.142;2024-03-17T10:57:32;93388.00;;;13.45;42.76
11680;BME280;5896;42.686;23.142;2024-03-17T11:00:05;93391.75;;;14.12;41.30
11680;BME280;5896;42.686;23.142;2024-03-17T11:02:33;93386.09;;;13.75;39.78
11680;BME280;5896;42.686;23.142;2024-03-17T11:05:06;93381.56;;;13.47;39.51
11680;BME280;5896;42.686;23.142;2024-03-17T11:07:37;93378.53;;;13.38;40.79
11680;BME280;5896;42.686;23.142;2024-03-17T11:10:04;93383.69;;;13.85;38.47
11680;BME280;5896;42.686;23.142;2024-03-17T11:12:54;93388.31;;;13.95;39.21
11680;BME280;5896;42.686;23.142;2024-03-17T11:20:37;93378.34;;;14.04;40.16
11680;BME280;5896;42.686;23.142;2024-03-17T11:23:03;93383.91;;;12.72;41.32
11680;BME280;5896;42.686;23.142;2024-03-17T11:28:03;93379.13;;;12.87;42.83
11680;BME280;5896;42.686;23.142;2024-03-17T11:38:56;93382.44;;;12.34;43.05
11680;BME280;5896;42.686;23.142;2024-03-17T11:41:41;93372.44;;;12.68;43.76
11680;BME280;5896;42.686;23.142;2024-03-17T11:47:02;93366.41;;;12.97;45.09
11680;BME280;5896;42.686;23.142;2024-03-17T11:51:58;93370.72;;;13.03;44.01
11680;BME280;5896;42.686;23.142;2024-03-17T11:54:29;93369.13;;;13.14;43.37
11680;BME280;5896;42.686;23.142;2024-03-17T11:56:55;93367.09;;;13.16;44.58
11680;BME280;5896;42.686;23.142;2024-03-17T11:59:21;93366.75;;;13.12;44.22
11680;BME280;5896;42.686;23.142;2024-03-17T12:01:48;93365.19;;;13.11;44.74
11680;BME280;5896;42.686;23.142;2024-03-17T12:04:15;93365.34;;;13.52;45.43
11680;BME280;5896;42.686;23.142;2024-03-17T12:06:49;93371.75;;;13.26;45.70
11680;BME280;5896;42.686;23.142;2024-03-17T12:09:28;93367.44;;;13.20;46.89
11680;BME280;5896;42.686;23.142;2024-03-17T12:12:05;93364.38;;;12.57;48.58
11680;BME280;5896;42.686;23.142;2024-03-17T12:14:35;93361.28;;;12.67;48.32
11680;BME280;5896;42.686;23.142;2024-03-17T12:17:12;93364.63;;;12.56;49.60
11680;BME280;5896;42.686;23.142;2024-03-17T12:19:39;93361.56;;;12.17;50.32
11680;BME280;5896;42.686;23.142;2024-03-17T12:22:06;93359.16;;;12.76;51.74
11680;BME280;5896;42.686;23.142;2024-03-17T12:24:33;93361.91;;;13.04;48.12
11680;BME280;5896;42.686;23.142;2024-03-17T12:27:00;93357.97;;;12.48;49.55
11680;BME280;5896;42.686;23.142;2024-03-17T12:29:36;93363.59;;;12.27;50.55
11680;BME280;5896;42.686;23.142;2024-03-17T12:32:15;93361.72;;;12.34;49.69
11680;BME280;5896;42.686;23.142;2024-03-17T12:34:43;93364.16;;;12.47;50.56
11680;BME280;5896;42.686;23.142;2024-03-17T12:37:15;93358.72;;;12.79;52.12
11680;BME280;5896;42.686;23.142;2024-03-17T12:39:41;93361.13;;;12.50;51.52
11680;BME280;5896;42.686;23.142;2024-03-17T12:42:17;93358.00;;;12.60;52.40
11680;BME280;5896;42.686;23.142;2024-03-17T12:47:23;93354.31;;;12.37;53.60
11680;BME280;5896;42.686;23.142;2024-03-17T12:49:56;93346.81;;;13.01;53.06
11680;BME280;5896;42.686;23.142;2024-03-17T12:52:26;93344.94;;;13.32;51.83
11680;BME280;5896;42.686;23.142;2024-03-17T12:57:43;93348.63;;;12.47;53.03
11680;BME280;5896;42.686;23.142;2024-03-17T13:00:27;93339.81;;;13.02;51.73
11680;BME280;5896;42.686;23.142;2024-03-17T13:03:06;93347.13;;;11.73;57.35
11680;BME280;5896;42.686;23.142;2024-03-17T13:05:33;93352.13;;;12.53;55.42
11680;BME280;5896;42.686;23.142;2024-03-17T13:07:59;93334.50;;;12.73;53.11
11680;BME280;5896;42.686;23.142;2024-03-17T13:10:25;93342.22;;;11.83;54.31
11680;BME280;5896;42.686;23.142;2024-03-17T13:13:02;93338.63;;;12.51;54.91
11680;BME280;5896;42.686;23.142;2024-03-17T13:15:28;93343.81;;;12.02;56.63
11680;BME280;5896;42.686;23.142;2024-03-17T13:17:56;93346.47;;;11.40;56.41
11680;BME280;5896;42.686;23.142;2024-03-17T13:20:22;93348.47;;;11.13;55.99
11680;BME280;5896;42.686;23.142;2024-03-17T13:22:48;93348.38;;;11.02;57.24
11680;BME280;5896;42.686;23.142;2024-03-17T13:25:18;93347.59;;;11.26;57.13
11680;BME280;5896;42.686;23.142;2024-03-17T13:27:47;93338.25;;;11.43;56.83
11680;BME280;5896;42.686;23.142;2024-03-17T13:30:13;93350.47;;;11.55;59.22
11680;BME280;5896;42.686;23.142;2024-03-17T13:32:39;93343.88;;;11.59;57.65
11680;BME280;5896;42.686;23.142;2024-03-17T13:35:17;93341.84;;;11.42;56.75
11680;BME280;5896;42.686;23.142;2024-03-17T13:37:46;93337.91;;;11.77;58.73
11680;BME280;5896;42.686;23.142;2024-03-17T13:40:13;93328.31;;;12.02;56.15
11680;BME280;5896;42.686;23.142;2024-03-17T13:42:44;93325.16;;;12.42;54.28